Terminal Aerodrome Forecast
Issued by NWS

Home | Current Version | Previous Version | Graphics & Text | Print | Product List | Glossary On
Versions: 1 2 3 4 5 6 7 8 9 10 11 12 13 14 15 16 17 18 19 20 21 22 23
000
FTUS43 KTOP 250658 AAA
TAFMHK
TAF AMD
KMHK 250658Z 2507/2606 04006KT P6SM VCTS SCT080CB BKN250
     FM250900 05005KT P6SM BKN250
     FM251400 08008KT P6SM SCT250=

USA.gov is the U.S. government's official web portal to all federal, state and local government web resources and services.